sensor_id;sensor_type;location;lat;lon;timestamp;P1;durP1;ratioP1;P2;durP2;ratioP2
8230;SDS011;4156;50.908;6.974;2023-09-12T00:00:46;7.53;;;4.90;;
8230;SDS011;4156;50.908;6.974;2023-09-12T00:03:12;7.95;;;4.70;;
8230;SDS011;4156;50.908;6.974;2023-09-12T00:05:37;6.50;;;5.05;;
8230;SDS011;4156;50.908;6.974;2023-09-12T00:08:03;8.35;;;4.53;;
8230;SDS011;4156;50.908;6.974;2023-09-12T00:10:29;5.45;;;4.07;;
8230;SDS011;4156;50.908;6.974;2023-09-12T00:12:55;5.90;;;4.45;;
8230;SDS011;4156;50.908;6.974;2023-09-12T00:15:21;6.18;;;4.43;;
8230;SDS011;4156;50.908;6.974;2023-09-12T00:17:46;5.95;;;4.28;;
8230;SDS011;4156;50.908;6.974;2023-09-12T00:20:15;5.68;;;4.30;;
8230;SDS011;4156;50.908;6.974;2023-09-12T00:22:40;7.50;;;4.78;;
8230;SDS011;4156;50.908;6.974;2023-09-12T00:25:06;6.78;;;4.20;;
8230;SDS011;4156;50.908;6.974;2023-09-12T00:27:32;5.32;;;4.05;;
8230;SDS011;4156;50.908;6.974;2023-09-12T00:29:57;6.50;;;3.72;;
8230;SDS011;4156;50.908;6.974;2023-09-12T00:32:23;6.28;;;4.00;;
8230;SDS011;4156;50.908;6.974;2023-09-12T00:34:48;6.65;;;4.07;;
8230;SDS011;4156;50.908;6.974;2023-09-12T00:37:14;11.20;;;3.80;;
8230;SDS011;4156;50.908;6.974;2023-09-12T00:39:39;5.47;;;3.88;;
8230;SDS011;4156;50.908;6.974;2023-09-12T00:42:05;4.97;;;3.60;;
8230;SDS011;4156;50.908;6.974;2023-09-12T00:44:32;5.63;;;4.25;;
8230;SDS011;4156;50.908;6.974;2023-09-12T00:46:58;5.45;;;3.90;;
8230;SDS011;4156;50.908;6.974;2023-09-12T00:49:25;5.05;;;3.83;;
8230;SDS011;4156;50.908;6.974;2023-09-12T00:51:52;4.60;;;3.63;;
8230;SDS011;4156;50.908;6.974;2023-09-12T00:54:19;6.20;;;4.30;;
8230;SDS011;4156;50.908;6.974;2023-09-12T00:56:45;5.88;;;3.85;;
8230;SDS011;4156;50.908;6.974;2023-09-12T00:59:11;5.85;;;4.30;;
8230;SDS011;4156;50.908;6.974;2023-09-12T01:01:37;5.03;;;3.70;;
8230;SDS011;4156;50.908;6.974;2023-09-12T01:04:02;6.28;;;4.32;;
8230;SDS011;4156;50.908;6.974;2023-09-12T01:06:28;6.72;;;4.60;;
8230;SDS011;4156;50.908;6.974;2023-09-12T01:08:56;6.85;;;4.20;;
8230;SDS011;4156;50.908;6.974;2023-09-12T01:11:22;4.80;;;3.80;;
8230;SDS011;4156;50.908;6.974;2023-09-12T01:13:48;5.75;;;4.53;;
8230;SDS011;4156;50.908;6.974;2023-09-12T01:16:14;6.38;;;4.10;;
8230;SDS011;4156;50.908;6.974;2023-09-12T01:18:39;5.90;;;4.47;;
8230;SDS011;4156;50.908;6.974;2023-09-12T01:21:55;6.72;;;4.20;;
8230;SDS011;4156;50.908;6.974;2023-09-12T01:26:56;7.50;;;4.40;;
8230;SDS011;4156;50.908;6.974;2023-09-12T01:29:43;6.55;;;5.03;;
8230;SDS011;4156;50.908;6.974;2023-09-12T01:32:10;7.15;;;4.30;;
8230;SDS011;4156;50.908;6.974;2023-09-12T01:34:37;6.72;;;4.50;;
8230;SDS011;4156;50.908;6.974;2023-09-12T01:37:02;8.20;;;5.43;;
8230;SDS011;4156;50.908;6.974;2023-09-12T01:39:28;9.35;;;5.10;;
8230;SDS011;4156;50.908;6.974;2023-09-12T01:41:54;6.13;;;4.85;;
8230;SDS011;4156;50.908;6.974;2023-09-12T01:44:20;7.85;;;5.07;;
8230;SDS011;4156;50.908;6.974;2023-09-12T01:46:49;7.97;;;5.30;;
8230;SDS011;4156;50.908;6.974;2023-09-12T01:49:18;8.27;;;5.85;;
8230;SDS011;4156;50.908;6.974;2023-09-12T01:51:46;8.80;;;5.78;;
8230;SDS011;4156;50.908;6.974;2023-09-12T01:54:12;7.20;;;5.60;;
8230;SDS011;4156;50.908;6.974;2023-09-12T01:56:39;6.72;;;5.40;;
8230;SDS011;4156;50.908;6.974;2023-09-12T01:59:05;7.47;;;5.60;;
8230;SDS011;4156;50.908;6.974;2023-09-12T02:01:31;7.53;;;5.28;;
8230;SDS011;4156;50.908;6.974;2023-09-12T02:03:57;8.52;;;5.60;;
8230;SDS011;4156;50.908;6.974;2023-09-12T02:06:22;7.18;;;5.25;;
8230;SDS011;4156;50.908;6.974;2023-09-12T02:08:48;6.43;;;5.65;;
8230;SDS011;4156;50.908;6.974;2023-09-12T02:11:14;6.70;;;5.18;;
8230;SDS011;4156;50.908;6.974;2023-09-12T02:13:39;5.95;;;4.65;;
8230;SDS011;4156;50.908;6.974;2023-09-12T02:16:05;7.10;;;4.80;;
8230;SDS011;4156;50.908;6.974;2023-09-12T02:18:30;5.53;;;4.60;;
8230;SDS011;4156;50.908;6.974;2023-09-12T02:20:57;8.57;;;5.95;;
8230;SDS011;4156;50.908;6.974;2023-09-12T02:23:23;5.97;;;4.38;;
8230;SDS011;4156;50.908;6.974;2023-09-12T02:25:49;6.22;;;4.38;;
8230;SDS011;4156;50.908;6.974;2023-09-12T02:28:14;7.47;;;4.53;;
8230;SDS011;4156;50.908;6.974;2023-09-12T02:30:40;5.95;;;4.57;;
8230;SDS011;4156;50.908;6.974;2023-09-12T02:33:06;7.82;;;4.57;;
8230;SDS011;4156;50.908;6.974;2023-09-12T02:35:31;7.30;;;4.43;;
8230;SDS011;4156;50.908;6.974;2023-09-12T02:37:57;7.32;;;4.65;;
8230;SDS011;4156;50.908;6.974;2023-09-12T02:40:23;7.75;;;4.88;;
8230;SDS011;4156;50.908;6.974;2023-09-12T02:42:48;7.80;;;5.32;;
8230;SDS011;4156;50.908;6.974;2023-09-12T02:45:14;7.47;;;5.28;;
8230;SDS011;4156;50.908;6.974;2023-09-12T02:47:40;6.05;;;4.90;;
8230;SDS011;4156;50.908;6.974;2023-09-12T02:50:05;6.55;;;5.25;;
8230;SDS011;4156;50.908;6.974;2023-09-12T02:52:31;6.53;;;4.35;;
8230;SDS011;4156;50.908;6.974;2023-09-12T02:54:57;10.80;;;5.45;;
8230;SDS011;4156;50.908;6.974;2023-09-12T02:57:22;7.03;;;4.53;;
8230;SDS011;4156;50.908;6.974;2023-09-12T02:59:48;7.47;;;4.00;;
8230;SDS011;4156;50.908;6.974;2023-09-12T03:02:13;6.40;;;4.10;;
8230;SDS011;4156;50.908;6.974;2023-09-12T03:04:39;5.33;;;3.83;;
8230;SDS011;4156;50.908;6.974;2023-09-12T03:07:04;7.88;;;4.03;;
8230;SDS011;4156;50.908;6.974;2023-09-12T03:09:30;4.20;;;3.67;;
8230;SDS011;4156;50.908;6.974;2023-09-12T03:11:55;4.63;;;3.57;;
8230;SDS011;4156;50.908;6.974;2023-09-12T03:14:21;5.82;;;3.78;;
8230;SDS011;4156;50.908;6.974;2023-09-12T03:16:46;6.50;;;3.65;;
8230;SDS011;4156;50.908;6.974;2023-09-12T03:19:12;5.07;;;3.47;;
8230;SDS011;4156;50.908;6.974;2023-09-12T03:21:37;6.80;;;3.90;;
8230;SDS011;4156;50.908;6.974;2023-09-12T03:24:04;7.18;;;3.78;;
8230;SDS011;4156;50.908;6.974;2023-09-12T03:26:29;5.15;;;3.55;;
8230;SDS011;4156;50.908;6.974;2023-09-12T03:28:55;6.60;;;3.88;;
8230;SDS011;4156;50.908;6.974;2023-09-12T03:31:20;4.63;;;3.83;;
8230;SDS011;4156;50.908;6.974;2023-09-12T03:33:46;5.70;;;4.37;;
8230;SDS011;4156;50.908;6.974;2023-09-12T03:36:14;6.87;;;4.37;;
8230;SDS011;4156;50.908;6.974;2023-09-12T03:38:41;5.43;;;4.57;;
8230;SDS011;4156;50.908;6.974;2023-09-12T03:41:07;6.50;;;4.60;;
8230;SDS011;4156;50.908;6.974;2023-09-12T03:43:33;6.50;;;4.32;;
8230;SDS011;4156;50.908;6.974;2023-09-12T03:45:58;7.17;;;5.30;;
8230;SDS011;4156;50.908;6.974;2023-09-12T03:48:24;6.23;;;4.87;;
8230;SDS011;4156;50.908;6.974;2023-09-12T03:50:50;6.93;;;5.63;;
8230;SDS011;4156;50.908;6.974;2023-09-12T03:53:15;7.85;;;4.97;;
8230;SDS011;4156;50.908;6.974;2023-09-12T03:55:41;7.07;;;5.17;;
8230;SDS011;4156;50.908;6.974;2023-09-12T03:58:07;6.85;;;4.90;;
8230;SDS011;4156;50.908;6.974;2023-09-12T04:00:32;6.63;;;4.65;;
8230;SDS011;4156;50.908;6.974;2023-09-12T04:02:58;6.45;;;4.93;;
8230;SDS011;4156;50.908;6.974;2023-09-12T04:05:24;7.43;;;5.23;;
8230;SDS011;4156;50.908;6.974;2023-09-12T04:07:50;7.20;;;5.00;;
8230;SDS011;4156;50.908;6.974;2023-09-12T04:10:17;6.32;;;5.03;;
8230;SDS011;4156;50.908;6.974;2023-09-12T04:12:43;6.80;;;5.30;;
8230;SDS011;4156;50.908;6.974;2023-09-12T04:15:09;6.82;;;5.10;;
8230;SDS011;4156;50.908;6.974;2023-09-12T04:17:34;8.13;;;5.37;;
8230;SDS011;4156;50.908;6.974;2023-09-12T04:20:00;7.03;;;4.97;;
8230;SDS011;4156;50.908;6.974;2023-09-12T04:22:26;7.78;;;5.40;;
8230;SDS011;4156;50.908;6.974;2023-09-12T04:24:53;7.40;;;4.57;;
8230;SDS011;4156;50.908;6.974;2023-09-12T04:27:19;7.17;;;5.17;;
8230;SDS011;4156;50.908;6.974;2023-09-12T04:29:44;9.67;;;5.67;;
8230;SDS011;4156;50.908;6.974;2023-09-12T04:32:10;8.23;;;5.47;;
8230;SDS011;4156;50.908;6.974;2023-09-12T04:34:36;9.60;;;5.90;;
8230;SDS011;4156;50.908;6.974;2023-09-12T04:37:02;7.00;;;5.57;;
8230;SDS011;4156;50.908;6.974;2023-09-12T04:39:28;7.83;;;5.33;;
8230;SDS011;4156;50.908;6.974;2023-09-12T04:41:53;6.93;;;4.80;;
8230;SDS011;4156;50.908;6.974;2023-09-12T04:44:19;12.00;;;6.47;;
8230;SDS011;4156;50.908;6.974;2023-09-12T04:46:44;9.00;;;5.60;;
8230;SDS011;4156;50.908;6.974;2023-09-12T04:49:11;7.93;;;5.30;;
8230;SDS011;4156;50.908;6.974;2023-09-12T04:51:36;6.47;;;5.10;;
8230;SDS011;4156;50.908;6.974;2023-09-12T04:54:02;6.20;;;5.03;;
8230;SDS011;4156;50.908;6.974;2023-09-12T04:56:28;8.33;;;5.77;;
8230;SDS011;4156;50.908;6.974;2023-09-12T04:58:54;9.03;;;5.40;;
8230;SDS011;4156;50.908;6.974;2023-09-12T05:01:19;6.23;;;4.50;;
8230;SDS011;4156;50.908;6.974;2023-09-12T05:03:45;5.90;;;4.77;;
8230;SDS011;4156;50.908;6.974;2023-09-12T05:08:37;6.87;;;4.60;;
8230;SDS011;4156;50.908;6.974;2023-09-12T05:11:02;5.40;;;4.47;;
8230;SDS011;4156;50.908;6.974;2023-09-12T05:13:28;5.23;;;4.37;;
8230;SDS011;4156;50.908;6.974;2023-09-12T05:15:54;5.73;;;4.70;;
8230;SDS011;4156;50.908;6.974;2023-09-12T05:18:21;8.23;;;5.33;;
8230;SDS011;4156;50.908;6.974;2023-09-12T05:20:47;5.57;;;4.37;;
8230;SDS011;4156;50.908;6.974;2023-09-12T05:23:12;6.13;;;4.03;;
8230;SDS011;4156;50.908;6.974;2023-09-12T05:25:38;5.17;;;4.23;;
8230;SDS011;4156;50.908;6.974;2023-09-12T05:28:03;5.80;;;4.03;;
8230;SDS011;4156;50.908;6.974;2023-09-12T05:30:29;5.97;;;4.57;;
8230;SDS011;4156;50.908;6.974;2023-09-12T05:32:55;7.13;;;4.30;;
8230;SDS011;4156;50.908;6.974;2023-09-12T05:35:20;5.88;;;4.50;;
8230;SDS011;4156;50.908;6.974;2023-09-12T05:37:46;7.53;;;4.30;;
8230;SDS011;4156;50.908;6.974;2023-09-12T05:40:12;6.83;;;4.33;;
8230;SDS011;4156;50.908;6.974;2023-09-12T05:42:38;5.63;;;4.00;;
8230;SDS011;4156;50.908;6.974;2023-09-12T05:45:04;6.70;;;5.03;;
8230;SDS011;4156;50.908;6.974;2023-09-12T05:47:31;5.40;;;4.53;;
8230;SDS011;4156;50.908;6.974;2023-09-12T05:49:56;7.43;;;4.30;;
8230;SDS011;4156;50.908;6.974;2023-09-12T05:52:24;5.13;;;4.33;;
8230;SDS011;4156;50.908;6.974;2023-09-12T05:54:49;4.90;;;4.23;;
8230;SDS011;4156;50.908;6.974;2023-09-12T05:57:15;6.60;;;4.67;;
8230;SDS011;4156;50.908;6.974;2023-09-12T05:59:41;5.27;;;4.57;;
8230;SDS011;4156;50.908;6.974;2023-09-12T06:02:06;6.47;;;4.18;;
8230;SDS011;4156;50.908;6.974;2023-09-12T06:04:34;6.87;;;4.17;;
8230;SDS011;4156;50.908;6.974;2023-09-12T06:07:01;4.90;;;4.23;;
8230;SDS011;4156;50.908;6.974;2023-09-12T06:09:28;6.30;;;3.93;;
8230;SDS011;4156;50.908;6.974;2023-09-12T06:11:53;5.53;;;4.03;;
8230;SDS011;4156;50.908;6.974;2023-09-12T06:14:19;7.23;;;4.13;;
8230;SDS011;4156;50.908;6.974;2023-09-12T06:16:44;6.43;;;4.83;;
8230;SDS011;4156;50.908;6.974;2023-09-12T06:19:10;5.37;;;3.63;;
8230;SDS011;4156;50.908;6.974;2023-09-12T06:21:35;7.07;;;3.92;;
8230;SDS011;4156;50.908;6.974;2023-09-12T06:24:08;6.07;;;4.00;;
8230;SDS011;4156;50.908;6.974;2023-09-12T06:26:36;5.22;;;4.00;;
8230;SDS011;4156;50.908;6.974;2023-09-12T06:29:02;4.33;;;3.90;;
8230;SDS011;4156;50.908;6.974;2023-09-12T06:31:27;9.02;;;3.83;;
8230;SDS011;4156;50.908;6.974;2023-09-12T06:33:53;6.83;;;3.57;;
8230;SDS011;4156;50.908;6.974;2023-09-12T06:36:19;6.50;;;4.03;;
8230;SDS011;4156;50.908;6.974;2023-09-12T06:38:44;7.07;;;4.00;;
8230;SDS011;4156;50.908;6.974;2023-09-12T06:41:10;5.33;;;3.83;;
8230;SDS011;4156;50.908;6.974;2023-09-12T06:43:35;3.47;;;3.17;;
8230;SDS011;4156;50.908;6.974;2023-09-12T06:46:01;4.30;;;3.43;;
8230;SDS011;4156;50.908;6.974;2023-09-12T06:48:26;5.20;;;3.72;;
8230;SDS011;4156;50.908;6.974;2023-09-12T06:50:53;4.47;;;3.30;;
8230;SDS011;4156;50.908;6.974;2023-09-12T06:53:19;6.57;;;3.60;;
8230;SDS011;4156;50.908;6.974;2023-09-12T06:55:45;4.17;;;3.10;;
8230;SDS011;4156;50.908;6.974;2023-09-12T06:58:10;6.68;;;4.93;;
8230;SDS011;4156;50.908;6.974;2023-09-12T07:00:36;5.68;;;4.30;;
8230;SDS011;4156;50.908;6.974;2023-09-12T07:03:02;8.13;;;5.53;;
8230;SDS011;4156;50.908;6.974;2023-09-12T07:05:28;7.97;;;5.75;;
8230;SDS011;4156;50.908;6.974;2023-09-12T07:07:54;9.43;;;6.22;;
8230;SDS011;4156;50.908;6.974;2023-09-12T07:10:19;8.93;;;5.90;;
8230;SDS011;4156;50.908;6.974;2023-09-12T07:12:45;7.32;;;5.30;;
8230;SDS011;4156;50.908;6.974;2023-09-12T07:15:10;9.43;;;5.55;;
8230;SDS011;4156;50.908;6.974;2023-09-12T07:17:36;9.23;;;5.95;;
8230;SDS011;4156;50.908;6.974;2023-09-12T07:20:01;7.23;;;5.93;;
8230;SDS011;4156;50.908;6.974;2023-09-12T07:22:27;7.95;;;6.50;;
8230;SDS011;4156;50.908;6.974;2023-09-12T07:24:53;8.13;;;5.97;;
8230;SDS011;4156;50.908;6.974;2023-09-12T07:27:19;6.35;;;5.55;;
8230;SDS011;4156;50.908;6.974;2023-09-12T07:29:44;8.13;;;5.47;;
8230;SDS011;4156;50.908;6.974;2023-09-12T07:32:10;7.63;;;5.03;;
8230;SDS011;4156;50.908;6.974;2023-09-12T07:34:35;15.65;;;6.38;;
8230;SDS011;4156;50.908;6.974;2023-09-12T07:37:02;8.90;;;5.83;;
8230;SDS011;4156;50.908;6.974;2023-09-12T07:39:28;7.50;;;5.78;;
8230;SDS011;4156;50.908;6.974;2023-09-12T07:41:54;9.48;;;5.25;;
8230;SDS011;4156;50.908;6.974;2023-09-12T07:44:20;8.25;;;5.30;;
8230;SDS011;4156;50.908;6.974;2023-09-12T07:46:46;12.60;;;5.33;;
8230;SDS011;4156;50.908;6.974;2023-09-12T07:49:11;6.83;;;5.00;;
8230;SDS011;4156;50.908;6.974;2023-09-12T07:51:37;10.23;;;4.67;;
8230;SDS011;4156;50.908;6.974;2023-09-12T07:54:02;7.60;;;4.63;;
8230;SDS011;4156;50.908;6.974;2023-09-12T07:56:28;5.43;;;4.38;;
8230;SDS011;4156;50.908;6.974;2023-09-12T07:58:54;6.38;;;4.38;;
8230;SDS011;4156;50.908;6.974;2023-09-12T08:01:20;5.57;;;4.18;;
8230;SDS011;4156;50.908;6.974;2023-09-12T08:03:46;4.57;;;3.80;;
8230;SDS011;4156;50.908;6.974;2023-09-12T08:06:12;8.50;;;4.20;;
8230;SDS011;4156;50.908;6.974;2023-09-12T08:08:38;4.75;;;3.60;;
8230;SDS011;4156;50.908;6.974;2023-09-12T08:11:03;5.18;;;4.20;;
8230;SDS011;4156;50.908;6.974;2023-09-12T08:13:29;6.15;;;3.97;;
8230;SDS011;4156;50.908;6.974;2023-09-12T08:15:56;6.70;;;3.60;;
8230;SDS011;4156;50.908;6.974;2023-09-12T08:18:26;5.35;;;4.03;;
8230;SDS011;4156;50.908;6.974;2023-09-12T08:20:54;6.07;;;4.00;;
8230;SDS011;4156;50.908;6.974;2023-09-12T08:23:20;6.75;;;4.50;;
8230;SDS011;4156;50.908;6.974;2023-09-12T08:25:45;6.93;;;4.28;;
8230;SDS011;4156;50.908;6.974;2023-09-12T08:28:11;6.63;;;4.05;;
8230;SDS011;4156;50.908;6.974;2023-09-12T08:30:36;4.07;;;3.67;;
8230;SDS011;4156;50.908;6.974;2023-09-12T08:33:02;6.22;;;4.00;;
8230;SDS011;4156;50.908;6.974;2023-09-12T08:35:28;4.63;;;3.30;;
8230;SDS011;4156;50.908;6.974;2023-09-12T08:37:54;5.32;;;3.58;;
8230;SDS011;4156;50.908;6.974;2023-09-12T08:40:20;4.85;;;4.35;;
8230;SDS011;4156;50.908;6.974;2023-09-12T08:42:45;6.00;;;4.18;;
8230;SDS011;4156;50.908;6.974;2023-09-12T08:45:13;5.30;;;4.00;;
8230;SDS011;4156;50.908;6.974;2023-09-12T08:47:43;5.20;;;4.18;;
8230;SDS011;4156;50.908;6.974;2023-09-12T08:50:14;5.45;;;4.25;;
8230;SDS011;4156;50.908;6.974;2023-09-12T08:52:41;7.03;;;3.80;;
8230;SDS011;4156;50.908;6.974;2023-09-12T08:55:08;5.43;;;3.92;;
8230;SDS011;4156;50.908;6.974;2023-09-12T08:57:38;7.55;;;3.90;;
8230;SDS011;4156;50.908;6.974;2023-09-12T09:00:06;6.70;;;3.38;;
8230;SDS011;4156;50.908;6.974;2023-09-12T09:02:37;5.57;;;3.67;;
8230;SDS011;4156;50.908;6.974;2023-09-12T09:05:05;5.15;;;3.83;;
8230;SDS011;4156;50.908;6.974;2023-09-12T09:07:32;5.63;;;4.30;;
8230;SDS011;4156;50.908;6.974;2023-09-12T09:10:03;4.95;;;3.83;;
8230;SDS011;4156;50.908;6.974;2023-09-12T09:12:34;6.43;;;4.22;;
8230;SDS011;4156;50.908;6.974;2023-09-12T09:17:48;6.55;;;4.55;;
8230;SDS011;4156;50.908;6.974;2023-09-12T09:20:32;6.18;;;4.57;;
8230;SDS011;4156;50.908;6.974;2023-09-12T09:23:03;9.52;;;4.82;;
8230;SDS011;4156;50.908;6.974;2023-09-12T09:25:30;7.07;;;5.20;;
8230;SDS011;4156;50.908;6.974;2023-09-12T09:27:56;7.07;;;4.75;;
8230;SDS011;4156;50.908;6.974;2023-09-12T09:30:41;6.43;;;4.43;;
8230;SDS011;4156;50.908;6.974;2023-09-12T09:33:09;6.28;;;4.78;;
8230;SDS011;4156;50.908;6.974;2023-09-12T09:35:36;6.43;;;4.35;;
8230;SDS011;4156;50.908;6.974;2023-09-12T09:38:05;6.40;;;4.45;;
8230;SDS011;4156;50.908;6.974;2023-09-12T09:40:32;7.88;;;5.18;;
8230;SDS011;4156;50.908;6.974;2023-09-12T09:42:59;5.50;;;4.20;;
8230;SDS011;4156;50.908;6.974;2023-09-12T09:45:26;6.70;;;4.70;;
8230;SDS011;4156;50.908;6.974;2023-09-12T09:47:52;8.77;;;4.30;;
8230;SDS011;4156;50.908;6.974;2023-09-12T09:50:21;6.18;;;4.28;;
8230;SDS011;4156;50.908;6.974;2023-09-12T09:52:47;4.60;;;3.85;;
8230;SDS011;4156;50.908;6.974;2023-09-12T09:55:19;5.38;;;4.40;;
8230;SDS011;4156;50.908;6.974;2023-09-12T09:57:45;5.28;;;4.13;;
8230;SDS011;4156;50.908;6.974;2023-09-12T10:00:11;4.97;;;4.20;;
8230;SDS011;4156;50.908;6.974;2023-09-12T10:02:40;5.85;;;4.20;;
8230;SDS011;4156;50.908;6.974;2023-09-12T10:05:10;8.77;;;4.32;;
8230;SDS011;4156;50.908;6.974;2023-09-12T10:07:38;7.65;;;3.78;;
8230;SDS011;4156;50.908;6.974;2023-09-12T10:10:12;6.07;;;4.25;;
8230;SDS011;4156;50.908;6.974;2023-09-12T10:12:43;6.15;;;4.05;;
8230;SDS011;4156;50.908;6.974;2023-09-12T10:15:33;5.25;;;3.60;;
8230;SDS011;4156;50.908;6.974;2023-09-12T10:18:09;7.03;;;3.83;;
8230;SDS011;4156;50.908;6.974;2023-09-12T10:20:54;4.13;;;3.67;;
8230;SDS011;4156;50.908;6.974;2023-09-12T10:23:43;4.15;;;3.58;;
8230;SDS011;4156;50.908;6.974;2023-09-12T10:26:44;5.40;;;3.35;;
8230;SDS011;4156;50.908;6.974;2023-09-12T10:29:27;7.00;;;3.72;;
8230;SDS011;4156;50.908;6.974;2023-09-12T10:32:36;5.78;;;3.72;;
8230;SDS011;4156;50.908;6.974;2023-09-12T10:35:32;8.57;;;3.60;;
8230;SDS011;4156;50.908;6.974;2023-09-12T10:38:18;5.18;;;3.67;;
8230;SDS011;4156;50.908;6.974;2023-09-12T10:41:22;3.88;;;3.47;;
8230;SDS011;4156;50.908;6.974;2023-09-12T10:44:20;6.55;;;3.97;;
8230;SDS011;4156;50.908;6.974;2023-09-12T10:47:00;4.22;;;3.47;;
8230;SDS011;4156;50.908;6.974;2023-09-12T10:49:57;3.78;;;3.40;;
8230;SDS011;4156;50.908;6.974;2023-09-12T10:52:29;6.07;;;3.65;;
8230;SDS011;4156;50.908;6.974;2023-09-12T10:55:16;6.45;;;3.80;;
8230;SDS011;4156;50.908;6.974;2023-09-12T10:58:13;5.57;;;4.10;;
8230;SDS011;4156;50.908;6.974;2023-09-12T11:03:52;4.18;;;3.30;;
8230;SDS011;4156;50.908;6.974;2023-09-12T11:06:30;5.95;;;3.65;;
8230;SDS011;4156;50.908;6.974;2023-09-12T11:12:35;6.25;;;3.95;;
8230;SDS011;4156;50.908;6.974;2023-09-12T11:15:36;3.85;;;3.40;;
8230;SDS011;4156;50.908;6.974;2023-09-12T11:18:10;6.22;;;3.72;;
8230;SDS011;4156;50.908;6.974;2023-09-12T11:21:23;3.92;;;3.40;;
8230;SDS011;4156;50.908;6.974;2023-09-12T11:24:03;4.85;;;3.40;;
8230;SDS011;4156;50.908;6.974;2023-09-12T11:26:53;5.50;;;3.83;;
8230;SDS011;4156;50.908;6.974;2023-09-12T11:29:38;5.32;;;3.70;;
8230;SDS011;4156;50.908;6.974;2023-09-12T11:32:30;4.65;;;3.88;;
8230;SDS011;4156;50.908;6.974;2023-09-12T11:35:37;5.45;;;3.90;;
8230;SDS011;4156;50.908;6.974;2023-09-12T11:38:09;5.95;;;3.53;;
8230;SDS011;4156;50.908;6.974;2023-09-12T11:40:57;4.88;;;3.58;;
8230;SDS011;4156;50.908;6.974;2023-09-12T11:43:46;7.32;;;4.13;;
8230;SDS011;4156;50.908;6.974;2023-09-12T11:46:38;5.47;;;4.28;;
8230;SDS011;4156;50.908;6.974;2023-09-12T11:49:51;5.88;;;3.38;;
8230;SDS011;4156;50.908;6.974;2023-09-12T11:52:41;6.70;;;3.65;;
8230;SDS011;4156;50.908;6.974;2023-09-12T11:55:59;4.50;;;3.63;;
8230;SDS011;4156;50.908;6.974;2023-09-12T11:58:55;5.30;;;3.40;;
8230;SDS011;4156;50.908;6.974;2023-09-12T12:01:51;4.75;;;3.10;;
8230;SDS011;4156;50.908;6.974;2023-09-12T12:04:45;4.90;;;3.78;;
8230;SDS011;4156;50.908;6.974;2023-09-12T12:07:49;3.78;;;3.38;;
8230;SDS011;4156;50.908;6.974;2023-09-12T12:10:34;5.15;;;3.63;;
8230;SDS011;4156;50.908;6.974;2023-09-12T12:13:24;4.63;;;3.40;;
8230;SDS011;4156;50.908;6.974;2023-09-12T12:16:49;3.67;;;3.03;;
8230;SDS011;4156;50.908;6.974;2023-09-12T12:23:14;3.80;;;3.15;;
8230;SDS011;4156;50.908;6.974;2023-09-12T12:26:17;4.72;;;3.83;;
8230;SDS011;4156;50.908;6.974;2023-09-12T12:29:06;3.78;;;3.38;;
8230;SDS011;4156;50.908;6.974;2023-09-12T12:32:30;4.05;;;3.30;;
8230;SDS011;4156;50.908;6.974;2023-09-12T12:35:45;5.45;;;3.55;;
8230;SDS011;4156;50.908;6.974;2023-09-12T12:38:17;6.80;;;3.65;;
8230;SDS011;4156;50.908;6.974;2023-09-12T12:41:31;4.15;;;3.67;;
8230;SDS011;4156;50.908;6.974;2023-09-12T12:45:01;4.47;;;3.50;;
8230;SDS011;4156;50.908;6.974;2023-09-12T12:48:34;5.47;;;3.80;;
8230;SDS011;4156;50.908;6.974;2023-09-12T12:51:28;5.80;;;3.75;;
8230;SDS011;4156;50.908;6.974;2023-09-12T12:54:11;5.93;;;3.65;;
8230;SDS011;4156;50.908;6.974;2023-09-12T12:56:50;4.47;;;3.55;;
8230;SDS011;4156;50.908;6.974;2023-09-12T12:59:59;6.47;;;3.70;;
8230;SDS011;4156;50.908;6.974;2023-09-12T13:02:30;3.97;;;3.30;;
8230;SDS011;4156;50.908;6.974;2023-09-12T13:05:00;4.82;;;3.70;;
8230;SDS011;4156;50.908;6.974;2023-09-12T13:07:40;6.13;;;3.38;;
8230;SDS011;4156;50.908;6.974;2023-09-12T13:10:17;5.00;;;3.45;;
8230;SDS011;4156;50.908;6.974;2023-09-12T13:13:21;5.43;;;3.50;;
8230;SDS011;4156;50.908;6.974;2023-09-12T13:15:49;4.72;;;3.50;;
8230;SDS011;4156;50.908;6.974;2023-09-12T13:18:23;6.18;;;4.07;;
8230;SDS011;4156;50.908;6.974;2023-09-12T13:21:22;5.93;;;3.63;;
8230;SDS011;4156;50.908;6.974;2023-09-12T13:23:48;6.53;;;3.78;;
8230;SDS011;4156;50.908;6.974;2023-09-12T13:27:16;4.30;;;3.75;;
8230;SDS011;4156;50.908;6.974;2023-09-12T13:30:25;7.38;;;3.90;;
8230;SDS011;4156;50.908;6.974;2023-09-12T13:33:16;3.58;;;3.28;;
8230;SDS011;4156;50.908;6.974;2023-09-12T13:35:55;4.72;;;3.88;;
8230;SDS011;4156;50.908;6.974;2023-09-12T13:38:48;3.70;;;3.33;;
8230;SDS011;4156;50.908;6.974;2023-09-12T13:41:45;5.85;;;3.50;;
8230;SDS011;4156;50.908;6.974;2023-09-12T13:44:59;3.55;;;3.17;;
8230;SDS011;4156;50.908;6.974;2023-09-12T13:47:55;3.75;;;3.35;;
8230;SDS011;4156;50.908;6.974;2023-09-12T13:50:29;6.85;;;3.92;;
8230;SDS011;4156;50.908;6.974;2023-09-12T13:53:20;3.33;;;3.03;;
8230;SDS011;4156;50.908;6.974;2023-09-12T13:56:05;4.20;;;3.63;;
8230;SDS011;4156;50.908;6.974;2023-09-12T13:59:00;4.50;;;3.20;;
8230;SDS011;4156;50.908;6.974;2023-09-12T14:02:25;4.10;;;3.70;;
8230;SDS011;4156;50.908;6.974;2023-09-12T14:05:13;6.90;;;3.50;;
8230;SDS011;4156;50.908;6.974;2023-09-12T14:08:01;5.25;;;3.67;;
8230;SDS011;4156;50.908;6.974;2023-09-12T14:11:23;4.68;;;3.42;;
8230;SDS011;4156;50.908;6.974;2023-09-12T14:14:13;5.63;;;3.95;;
8230;SDS011;4156;50.908;6.974;2023-09-12T14:16:44;4.00;;;3.40;;
8230;SDS011;4156;50.908;6.974;2023-09-12T14:19:35;3.72;;;3.08;;
8230;SDS011;4156;50.908;6.974;2023-09-12T14:22:33;5.57;;;3.53;;
8230;SDS011;4156;50.908;6.974;2023-09-12T14:25:37;5.30;;;3.65;;
8230;SDS011;4156;50.908;6.974;2023-09-12T14:28:33;5.45;;;3.30;;
8230;SDS011;4156;50.908;6.974;2023-09-12T14:31:01;5.22;;;3.22;;
8230;SDS011;4156;50.908;6.974;2023-09-12T14:33:33;5.30;;;3.45;;
8230;SDS011;4156;50.908;6.974;2023-09-12T14:36:39;5.72;;;3.17;;
8230;SDS011;4156;50.908;6.974;2023-09-12T14:39:15;4.75;;;3.30;;
8230;SDS011;4156;50.908;6.974;2023-09-12T14:41:50;3.38;;;3.08;;
8230;SDS011;4156;50.908;6.974;2023-09-12T14:45:10;4.65;;;3.05;;
8230;SDS011;4156;50.908;6.974;2023-09-12T14:47:47;3.90;;;3.10;;
8230;SDS011;4156;50.908;6.974;2023-09-12T14:50:43;3.72;;;3.33;;
8230;SDS011;4156;50.908;6.974;2023-09-12T14:53:41;6.80;;;3.30;;
8230;SDS011;4156;50.908;6.974;2023-09-12T14:56:23;6.15;;;3.42;;
8230;SDS011;4156;50.908;6.974;2023-09-12T14:59:05;4.47;;;3.25;;
8230;SDS011;4156;50.908;6.974;2023-09-12T15:09:18;4.22;;;3.20;;
8230;SDS011;4156;50.908;6.974;2023-09-12T15:12:37;3.80;;;3.10;;
8230;SDS011;4156;50.908;6.974;2023-09-12T15:15:22;4.43;;;3.20;;
8230;SDS011;4156;50.908;6.974;2023-09-12T15:18:24;5.30;;;3.60;;
8230;SDS011;4156;50.908;6.974;2023-09-12T15:21:15;5.55;;;3.10;;
8230;SDS011;4156;50.908;6.974;2023-09-12T15:24:07;5.05;;;3.28;;
8230;SDS011;4156;50.908;6.974;2023-09-12T15:26:40;5.03;;;3.33;;
8230;SDS011;4156;50.908;6.974;2023-09-12T15:29:36;5.57;;;3.28;;
8230;SDS011;4156;50.908;6.974;2023-09-12T15:32:05;3.28;;;2.97;;
8230;SDS011;4156;50.908;6.974;2023-09-12T15:34:49;4.15;;;2.90;;
8230;SDS011;4156;50.908;6.974;2023-09-12T15:37:53;3.83;;;2.97;;
8230;SDS011;4156;50.908;6.974;2023-09-12T15:40:52;4.15;;;3.10;;
8230;SDS011;4156;50.908;6.974;2023-09-12T15:44:07;4.32;;;3.13;;
8230;SDS011;4156;50.908;6.974;2023-09-12T15:47:10;4.68;;;3.03;;
8230;SDS011;4156;50.908;6.974;2023-09-12T15:50:09;3.90;;;3.10;;
8230;SDS011;4156;50.908;6.974;2023-09-12T15:52:58;5.57;;;3.00;;
8230;SDS011;4156;50.908;6.974;2023-09-12T15:55:56;4.38;;;2.88;;
8230;SDS011;4156;50.908;6.974;2023-09-12T15:59:37;4.22;;;3.10;;
8230;SDS011;4156;50.908;6.974;2023-09-12T16:02:42;3.47;;;3.17;;
8230;SDS011;4156;50.908;6.974;2023-09-12T16:06:00;3.03;;;2.58;;
8230;SDS011;4156;50.908;6.974;2023-09-12T16:08:56;4.68;;;2.90;;
8230;SDS011;4156;50.908;6.974;2023-09-12T16:11:47;3.88;;;2.88;;
8230;SDS011;4156;50.908;6.974;2023-09-12T16:14:15;5.38;;;3.47;;
8230;SDS011;4156;50.908;6.974;2023-09-12T16:16:46;3.70;;;3.40;;
8230;SDS011;4156;50.908;6.974;2023-09-12T16:19:39;3.33;;;3.00;;
8230;SDS011;4156;50.908;6.974;2023-09-12T16:22:07;3.60;;;2.70;;
8230;SDS011;4156;50.908;6.974;2023-09-12T16:24:34;3.05;;;2.75;;
8230;SDS011;4156;50.908;6.974;2023-09-12T16:27:00;4.15;;;3.28;;
8230;SDS011;4156;50.908;6.974;2023-09-12T16:29:26;4.40;;;3.40;;